Time;durP1;ratioP1;P1;durP2;ratioP2;P2;SDS_P1;SDS_P2;PMS_P1;PMS_P2;Temp;Humidity;BMP_temperature;BMP_pressure;BME280_temperature;BME280_humidity;BME280_pressure;Samples;Min_cycle;Max_cycle;Signal;HPM_P1;HPM_P2
2022/08/16 00:01:20;;;;;;;12.30;4.05;;;25.40;99.90;;;;;;5084400;28;20459;-50
2022/08/16 00:03:45;;;;;;;12.63;4.50;;;25.40;99.90;;;;;;5080113;28;20028;-49
2022/08/16 00:06:12;;;;;;;12.32;4.25;;;25.40;99.90;;;;;;5078839;28;20051;-50
2022/08/16 00:08:38;;;;;;;9.30;3.75;;;25.30;99.90;;;;;;5079190;28;20029;-51
2022/08/16 00:11:10;;;;;;;10.20;4.55;;;25.30;99.90;;;;;;5079384;28;20388;-52
2022/08/16 00:13:36;;;;;;;14.80;4.90;;;25.30;99.90;;;;;;5082755;28;20040;-52
2022/08/16 00:16:03;;;;;;;13.20;4.63;;;25.30;99.90;;;;;;5087336;28;20045;-51
2022/08/16 00:18:29;;;;;;;13.15;4.78;;;25.30;99.90;;;;;;5089685;28;20030;-51
2022/08/16 00:20:55;;;;;;;12.73;4.75;;;25.30;99.90;;;;;;5089500;28;20024;-51
2022/08/16 00:23:20;;;;;;;20.45;5.68;;;25.30;99.90;;;;;;5090790;28;20270;-52
2022/08/16 00:25:46;;;;;;;11.20;4.25;;;25.30;99.90;;;;;;5090211;28;20598;-51
2022/08/16 00:28:12;;;;;;;15.10;4.20;;;25.30;99.90;;;;;;5091962;28;20031;-51
2022/08/16 00:30:39;;;;;;;12.23;5.18;;;25.30;99.90;;;;;;5091763;28;20484;-51
2022/08/16 00:33:05;;;;;;;10.82;4.90;;;25.40;99.90;;;;;;5096960;28;20129;-52
2022/08/16 00:35:34;;;;;;;13.50;5.07;;;25.40;99.90;;;;;;5091307;28;20286;-51
2022/08/16 00:38:01;;;;;;;9.10;4.07;;;25.40;99.90;;;;;;5090883;28;20047;-51
2022/08/16 00:40:39;;;;;;;;;;;25.40;99.90;;;;;;5102437;28;20387;-51
2022/08/16 00:43:18;;;;;;;12.23;3.90;;;25.40;99.90;;;;;;5111797;28;19939;-51
2022/08/16 00:46:27;;;;;;;12.23;3.90;;;25.40;99.90;;;;;;5086589;28;20070;-51
2022/08/16 00:48:53;;;;;;;12.27;4.28;;;25.30;99.90;;;;;;5066447;28;20058;-51
2022/08/16 00:51:21;;;;;;;9.73;3.78;;;25.30;99.90;;;;;;5090878;28;20483;-52
2022/08/16 00:53:48;;;;;;;13.00;4.07;;;25.30;99.90;;;;;;5079229;28;20035;-51
2022/08/16 00:56:17;;;;;;;13.93;4.25;;;25.30;99.90;;;;;;5091209;28;20028;-51
2022/08/16 00:58:45;;;;;;;10.57;4.47;;;25.30;99.90;;;;;;5091454;28;20030;-51
2022/08/16 01:01:12;;;;;;;13.05;5.07;;;25.30;99.90;;;;;;5091759;28;20038;-50
2022/08/16 01:03:40;;;;;;;11.13;4.80;;;25.30;99.90;;;;;;5091650;28;20016;-50
2022/08/16 01:06:08;;;;;;;13.63;5.18;;;25.30;99.90;;;;;;5091325;28;20308;-51
2022/08/16 01:08:35;;;;;;;12.70;4.68;;;25.30;99.90;;;;;;5091290;28;20103;-51
2022/08/16 01:11:02;;;;;;;13.02;4.85;;;25.30;99.90;;;;;;5091289;28;20115;-51
2022/08/16 01:13:31;;;;;;;6.78;3.90;;;25.30;99.90;;;;;;5091352;28;20032;-51
2022/08/16 01:15:59;;;;;;;10.75;4.28;;;25.30;99.90;;;;;;5073080;28;20111;-51
2022/08/16 01:18:38;;;;;;;9.18;3.65;;;25.30;99.90;;;;;;5091061;28;20472;-50
2022/08/16 01:21:25;;;;;;;12.07;3.90;;;25.30;99.90;;;;;;5091207;28;20468;-50
2022/08/16 01:24:12;;;;;;;9.10;3.90;;;25.40;99.90;;;;;;5091171;28;20091;-50
2022/08/16 01:26:39;;;;;;;5.82;2.85;;;25.40;99.90;;;;;;5091283;28;20032;-51
2022/08/16 01:29:07;;;;;;;;;;;25.50;99.90;;;;;;5091605;28;20028;-51
2022/08/16 01:31:33;;;;;;;5.95;3.55;;;25.50;99.90;;;;;;5091232;28;19907;-51
2022/08/16 01:33:59;;;;;;;5.65;2.90;;;25.60;99.90;;;;;;5091132;28;20528;-51
2022/08/16 01:36:24;;;;;;;6.75;3.67;;;25.60;99.90;;;;;;5091051;28;20020;-51
2022/08/16 01:38:50;;;;;;;7.40;3.70;;;25.70;99.90;;;;;;5091178;28;20027;-51
2022/08/16 01:41:20;;;;;;;6.93;3.08;;;25.70;99.90;;;;;;5091109;28;20046;-51
2022/08/16 01:43:47;;;;;;;5.97;3.20;;;25.80;99.90;;;;;;5090989;28;20031;-51
2022/08/16 01:46:30;;;;;;;7.03;2.83;;;25.80;99.90;;;;;;5091164;28;20028;-51
2022/08/16 01:49:03;;;;;;;4.57;3.13;;;25.90;99.90;;;;;;5092569;28;20106;-51
2022/08/16 01:51:29;;;;;;;7.85;2.80;;;26.00;99.90;;;;;;5094856;28;20016;-51
2022/08/16 01:53:55;;;;;;;4.03;2.80;;;26.00;99.90;;;;;;5094914;28;20028;-51
2022/08/16 01:56:22;;;;;;;4.15;2.28;;;26.10;99.90;;;;;;5094944;28;20016;-49
2022/08/16 01:58:48;;;;;;;5.57;2.40;;;26.10;99.90;;;;;;5094882;28;20051;-49
2022/08/16 02:01:14;;;;;;;7.35;2.20;;;26.20;99.90;;;;;;5075585;22;20045;-50
2022/08/16 02:03:40;;;;;;;6.05;2.22;;;26.20;99.90;;;;;;5054709;28;20021;-51
2022/08/16 02:06:06;;;;;;;4.30;2.50;;;26.30;99.90;;;;;;5054261;28;20397;-51
2022/08/16 02:08:33;;;;;;;5.03;2.42;;;26.30;99.90;;;;;;5054151;28;20033;-51
2022/08/16 02:11:01;;;;;;;5.25;2.40;;;26.30;99.90;;;;;;5054322;28;20028;-51
2022/08/16 02:13:27;;;;;;;8.65;2.28;;;26.40;99.90;;;;;;5054187;28;20378;-50
2022/08/16 02:15:54;;;;;;;8.65;2.17;;;26.40;99.90;;;;;;5054195;28;20071;-52
2022/08/16 02:18:19;;;;;;;8.50;2.58;;;26.40;99.90;;;;;;5054295;28;20045;-51
2022/08/16 02:20:49;;;;;;;9.23;2.85;;;26.50;99.90;;;;;;5036636;28;20072;-51
2022/08/16 02:23:16;;;;;;;7.93;2.42;;;26.60;99.90;;;;;;5054354;28;20017;-50
2022/08/16 02:25:42;;;;;;;3.42;2.15;;;26.60;99.90;;;;;;5054186;28;20370;-50
2022/08/16 02:28:08;;;;;;;9.50;3.20;;;26.60;99.90;;;;;;5053999;28;20100;-51
2022/08/16 02:30:34;;;;;;;7.68;3.17;;;26.60;99.90;;;;;;5053928;28;20572;-52
2022/08/16 02:33:00;;;;;;;5.10;2.42;;;26.60;99.90;;;;;;5054085;28;20028;-51
2022/08/16 02:35:26;;;;;;;9.32;2.40;;;26.70;99.90;;;;;;5053850;28;20370;-51
2022/08/16 02:37:53;;;;;;;7.53;2.88;;;26.70;99.90;;;;;;5053803;28;20025;-51
2022/08/16 02:40:21;;;;;;;7.07;2.90;;;26.70;99.90;;;;;;5036011;28;20393;-50
2022/08/16 02:42:49;;;;;;;4.57;2.40;;;26.70;99.90;;;;;;5053530;28;20079;-50
2022/08/16 02:45:15;;;;;;;5.45;2.00;;;26.70;99.90;;;;;;5053932;28;20017;-51
2022/08/16 02:47:40;;;;;;;4.95;2.15;;;26.70;99.90;;;;;;5053557;28;20033;-51
2022/08/16 02:50:07;;;;;;;5.57;2.10;;;26.70;99.90;;;;;;5035942;28;20028;-51
2022/08/16 02:52:34;;;;;;;4.82;2.38;;;26.80;99.90;;;;;;5053463;28;20483;-51
2022/08/16 02:54:59;;;;;;;6.53;2.55;;;26.80;99.90;;;;;;5053597;28;20029;-52
2022/08/16 02:57:25;;;;;;;8.60;2.63;;;26.80;99.90;;;;;;5053393;28;20489;-51
2022/08/16 02:59:51;;;;;;;5.22;2.60;;;26.80;99.90;;;;;;5066562;22;20083;-49
2022/08/16 03:02:18;;;;;;;5.60;2.45;;;26.80;99.90;;;;;;5038243;28;20142;-50
2022/08/16 03:04:44;;;;;;;4.05;2.42;;;26.80;99.90;;;;;;5053606;28;20032;-51
2022/08/16 03:07:10;;;;;;;5.38;2.70;;;26.80;99.90;;;;;;5053149;28;20392;-50
2022/08/16 03:09:37;;;;;;;7.93;2.40;;;26.80;99.90;;;;;;5053757;28;20466;-48
2022/08/16 03:12:04;;;;;;;5.13;2.65;;;26.80;99.90;;;;;;5073152;28;20040;-49
2022/08/16 03:14:30;;;;;;;7.30;2.70;;;26.80;99.90;;;;;;5055144;28;20031;-50
2022/08/16 03:16:56;;;;;;;3.75;2.65;;;26.80;99.90;;;;;;5073178;28;20032;-50
2022/08/16 03:19:22;;;;;;;5.10;2.90;;;26.80;99.90;;;;;;5073003;28;20036;-50
2022/08/16 03:21:48;;;;;;;7.45;3.28;;;26.80;99.90;;;;;;5073131;28;20446;-51
2022/08/16 03:24:14;;;;;;;4.40;2.58;;;26.80;99.90;;;;;;5072995;28;20029;-51
2022/08/16 03:26:40;;;;;;;6.07;3.15;;;26.80;99.90;;;;;;5072784;28;20085;-51
2022/08/16 03:29:05;;;;;;;5.78;3.10;;;26.80;99.90;;;;;;5073008;28;20027;-50
2022/08/16 03:31:31;;;;;;;8.98;3.28;;;26.80;99.90;;;;;;5072772;28;20036;-50
2022/08/16 03:33:57;;;;;;;8.60;3.15;;;26.80;99.90;;;;;;5072730;28;20095;-49
2022/08/16 03:36:23;;;;;;;6.50;3.08;;;26.80;99.90;;;;;;5072820;28;20396;-50
2022/08/16 03:38:49;;;;;;;11.57;3.20;;;26.80;99.90;;;;;;5072919;28;20039;-51
2022/08/16 03:41:15;;;;;;;10.20;3.72;;;26.80;99.90;;;;;;5067621;28;20024;-50
2022/08/16 03:43:41;;;;;;;10.50;3.45;;;26.70;99.90;;;;;;5052512;28;20035;-49
2022/08/16 03:46:09;;;;;;;13.43;3.85;;;26.70;99.90;;;;;;5052264;28;20037;-50
2022/08/16 03:48:37;;;;;;;10.57;4.35;;;26.60;99.90;;;;;;5034928;28;20082;-49
2022/08/16 03:51:06;;;;;;;10.82;4.43;;;26.40;99.90;;;;;;5071864;28;20025;-49
2022/08/16 03:53:32;;;;;;;14.27;4.55;;;26.40;99.90;;;;;;5072421;28;20020;-50
2022/08/16 03:55:58;;;;;;;15.05;4.82;;;26.30;99.90;;;;;;5072331;28;20027;-50
2022/08/16 03:58:24;;;;;;;15.77;4.57;;;26.20;99.90;;;;;;5072181;28;20013;-50
2022/08/16 04:00:50;;;;;;;14.52;3.67;;;26.20;99.90;;;;;;5085402;22;20052;-50
2022/08/16 04:03:16;;;;;;;12.13;4.07;;;26.10;99.90;;;;;;5054391;28;20037;-50
2022/08/16 04:05:45;;;;;;;16.52;4.30;;;26.00;99.90;;;;;;5071993;28;20095;-51
2022/08/16 04:08:11;;;;;;;18.15;5.15;;;25.90;99.90;;;;;;5071920;28;20484;-51
2022/08/16 04:10:38;;;;;;;7.72;3.55;;;25.90;99.90;;;;;;5071624;28;20040;-51
2022/08/16 04:13:04;;;;;;;9.13;3.65;;;25.80;99.90;;;;;;5071648;28;20488;-51
2022/08/16 04:15:30;;;;;;;12.98;4.30;;;25.80;99.90;;;;;;5071833;28;20059;-51
2022/08/16 04:17:57;;;;;;;10.70;3.67;;;25.80;99.90;;;;;;5071823;28;20028;-52
2022/08/16 04:20:24;;;;;;;7.72;3.30;;;25.80;99.90;;;;;;5071832;28;20075;-51
2022/08/16 04:22:51;;;;;;;10.07;3.28;;;25.70;99.90;;;;;;5072121;28;20033;-52
2022/08/16 04:25:17;;;;;;;8.38;3.53;;;25.70;99.90;;;;;;5071847;28;20082;-52
2022/08/16 04:27:42;;;;;;;9.52;3.53;;;25.70;99.90;;;;;;5071629;28;20079;-52
2022/08/16 04:30:11;;;;;;;9.93;3.60;;;25.70;99.90;;;;;;5071686;28;20044;-52
2022/08/16 04:32:38;;;;;;;10.85;4.25;;;25.70;99.90;;;;;;5071593;28;20369;-52
2022/08/16 04:35:06;;;;;;;9.77;3.78;;;25.70;99.90;;;;;;5071662;28;20012;-52
2022/08/16 04:37:32;;;;;;;5.68;3.20;;;25.70;99.90;;;;;;5071617;28;20036;-51
2022/08/16 04:39:58;;;;;;;8.20;3.88;;;25.70;99.90;;;;;;5053615;28;20020;-51
2022/08/16 04:42:26;;;;;;;7.90;3.45;;;25.70;99.90;;;;;;5071722;28;20388;-51
2022/08/16 04:44:52;;;;;;;10.30;4.13;;;25.70;99.90;;;;;;5071703;28;20073;-51
2022/08/16 04:47:17;;;;;;;14.10;5.35;;;25.70;99.90;;;;;;5071427;28;20521;-51
2022/08/16 04:49:43;;;;;;;10.25;4.30;;;25.70;99.90;;;;;;5053414;28;20480;-51
2022/08/16 04:52:09;;;;;;;12.65;4.60;;;25.60;99.90;;;;;;5053490;28;20028;-50
2022/08/16 04:54:35;;;;;;;9.50;4.18;;;25.60;99.90;;;;;;5071032;28;20037;-51
2022/08/16 04:57:00;;;;;;;14.23;5.43;;;25.60;99.90;;;;;;5071423;28;20027;-51
2022/08/16 04:59:26;;;;;;;11.68;4.45;;;25.50;99.90;;;;;;5071387;28;20492;-50
2022/08/16 05:01:55;;;;;;;12.50;4.93;;;25.50;99.90;;;;;;5071294;28;20423;-51
2022/08/16 05:04:22;;;;;;;18.65;4.55;;;25.50;99.90;;;;;;5071447;28;20085;-50
2022/08/16 05:06:48;;;;;;;15.52;5.47;;;25.40;99.90;;;;;;5053226;28;20048;-50
2022/08/16 05:09:14;;;;;;;13.15;5.28;;;25.40;99.90;;;;;;5053258;28;20036;-51
2022/08/16 05:11:40;;;;;;;22.63;6.15;;;25.40;99.90;;;;;;5071177;28;20013;-50
2022/08/16 05:14:06;;;;;;;14.90;5.60;;;25.30;99.90;;;;;;5071064;28;20040;-51
2022/08/16 05:16:32;;;;;;;19.38;5.07;;;25.40;99.90;;;;;;5071171;28;20082;-51
2022/08/16 05:19:01;;;;;;;14.98;5.80;;;25.30;99.90;;;;;;5071081;28;20112;-50
2022/08/16 05:21:27;;;;;;;12.98;5.35;;;25.30;99.90;;;;;;5071230;28;20090;-51
2022/08/16 05:23:54;;;;;;;13.13;4.60;;;25.30;99.90;;;;;;5056457;28;20081;-50
2022/08/16 05:26:20;;;;;;;14.15;5.07;;;25.30;99.90;;;;;;5075016;28;20079;-50
2022/08/16 05:28:47;;;;;;;15.85;4.75;;;25.20;99.90;;;;;;5075181;28;20067;-51
2022/08/16 05:31:15;;;;;;;14.30;4.60;;;25.20;99.90;;;;;;5074994;28;20044;-51
2022/08/16 05:33:41;;;;;;;22.23;5.30;;;25.10;99.90;;;;;;5075022;28;20036;-50
2022/08/16 05:36:07;;;;;;;19.05;5.28;;;25.10;99.90;;;;;;5075122;28;20044;-49
2022/08/16 05:38:33;;;;;;;18.38;5.85;;;25.00;99.90;;;;;;5074865;28;20056;-50
2022/08/16 05:41:00;;;;;;;17.60;6.60;;;25.00;99.90;;;;;;5074978;28;20060;-51
2022/08/16 05:43:26;;;;;;;14.07;4.95;;;25.00;99.90;;;;;;5075101;28;20025;-50
2022/08/16 05:45:53;;;;;;;17.48;6.15;;;24.90;99.90;;;;;;5074734;28;20114;-51
2022/08/16 05:48:19;;;;;;;19.50;4.80;;;24.90;99.90;;;;;;5074798;28;20051;-51
2022/08/16 05:50:45;;;;;;;11.48;5.07;;;24.80;99.90;;;;;;5056607;28;20393;-50
2022/08/16 05:53:11;;;;;;;14.20;5.50;;;24.80;99.90;;;;;;5074625;28;20028;-49
2022/08/16 05:55:37;;;;;;;19.48;5.65;;;24.80;99.90;;;;;;5056755;28;20077;-51
2022/08/16 05:58:03;;;;;;;14.23;5.43;;;24.70;99.90;;;;;;5074390;28;20113;-50
2022/08/16 06:00:30;;;;;;;16.88;6.10;;;24.70;99.90;;;;;;5074392;28;20140;-50
2022/08/16 06:02:56;;;;;;;26.45;7.07;;;24.80;99.90;;;;;;5073162;28;20028;-50
2022/08/16 06:05:23;;;;;;;32.50;7.00;;;24.80;99.90;;;;;;5056400;28;20047;-50
2022/08/16 06:07:50;;;;;;;20.13;6.00;;;24.80;99.90;;;;;;5074193;28;20039;-50
2022/08/16 06:10:16;;;;;;;16.17;5.03;;;24.80;99.90;;;;;;5070155;28;20025;-50
2022/08/16 06:12:42;;;;;;;14.27;4.57;;;24.80;99.90;;;;;;5073623;28;20423;-50
2022/08/16 06:15:15;;;;;;;14.18;5.13;;;24.80;99.90;;;;;;5073454;28;20065;-50
2022/08/16 06:17:41;;;;;;;13.85;4.72;;;24.90;99.90;;;;;;5070509;28;20055;-51
2022/08/16 06:20:12;;;;;;;17.08;5.18;;;24.90;99.90;;;;;;5068109;28;20029;-50
2022/08/16 06:22:37;;;;;;;20.13;5.50;;;24.90;99.90;;;;;;5073904;28;20369;-50
2022/08/16 06:25:04;;;;;;;16.17;5.50;;;25.00;99.90;;;;;;5073958;28;20028;-51
2022/08/16 06:27:29;;;;;;;16.42;5.18;;;25.00;99.90;;;;;;5074103;28;20029;-49
2022/08/16 06:29:55;;;;;;;9.30;5.05;;;25.00;99.90;;;;;;5073786;28;20024;-50
2022/08/16 06:32:21;;;;;;;12.60;5.35;;;25.10;99.90;;;;;;5071993;28;20071;-50
2022/08/16 06:34:47;;;;;;;11.60;5.15;;;25.20;99.90;;;;;;5069302;28;20043;-50
2022/08/16 06:37:12;;;;;;;16.60;6.10;;;25.30;99.90;;;;;;5055445;28;20028;-50
2022/08/16 06:39:38;;;;;;;15.80;4.72;;;25.30;99.90;;;;;;5071830;28;20032;-51
2022/08/16 06:42:04;;;;;;;16.75;4.88;;;25.40;99.90;;;;;;5052353;28;20040;-50
2022/08/16 06:44:30;;;;;;;15.18;6.07;;;25.40;99.90;;;;;;5071923;28;20013;-51
2022/08/16 06:46:56;;;;;;;16.40;5.50;;;25.50;99.90;;;;;;5072935;28;20465;-50
2022/08/16 06:49:22;;;;;;;17.63;5.07;;;25.60;99.90;;;;;;5067996;28;20094;-50
2022/08/16 06:51:48;;;;;;;17.55;5.78;;;25.60;99.90;;;;;;5072882;28;20074;-50
2022/08/16 06:54:14;;;;;;;15.20;5.20;;;25.70;99.90;;;;;;5073039;28;20024;-49
2022/08/16 06:56:41;;;;;;;13.50;4.85;;;25.70;99.90;;;;;;5072800;28;20035;-50
2022/08/16 06:59:07;;;;;;;13.32;4.57;;;25.70;99.90;;;;;;5073099;28;20380;-50
2022/08/16 07:01:33;;;;;;;13.05;3.95;;;25.80;99.90;;;;;;5071020;28;20047;-51
2022/08/16 07:03:59;;;;;;;11.77;4.43;;;25.90;99.90;;;;;;5072854;28;20020;-51
2022/08/16 07:06:25;;;;;;;9.25;4.97;;;25.90;99.90;;;;;;5072045;28;20485;-51
2022/08/16 07:08:51;;;;;;;11.88;4.18;;;25.90;99.90;;;;;;5073129;28;20562;-51
2022/08/16 07:11:19;;;;;;;8.07;4.20;;;26.00;99.90;;;;;;5056215;28;20021;-50
2022/08/16 07:13:47;;;;;;;21.25;4.57;;;26.00;99.90;;;;;;5072693;28;20024;-51
2022/08/16 07:16:15;;;;;;;12.38;5.07;;;26.10;99.90;;;;;;5072955;28;20081;-50
2022/08/16 07:18:44;;;;;;;10.75;4.40;;;26.10;99.90;;;;;;5072433;28;20048;-50
2022/08/16 07:21:12;;;;;;;8.27;4.75;;;26.20;99.90;;;;;;5059390;28;20070;-49
2022/08/16 07:23:39;;;;;;;23.00;5.22;;;26.20;99.90;;;;;;5072654;28;20035;-50
2022/08/16 07:26:08;;;;;;;21.98;5.93;;;26.20;99.90;;;;;;5072001;28;20028;-49
2022/08/16 07:28:34;;;;;;;14.35;5.40;;;26.20;99.90;;;;;;5065610;28;20377;-49
2022/08/16 07:31:01;;;;;;;18.95;5.05;;;26.10;99.90;;;;;;5047593;28;20024;-49
2022/08/16 07:33:31;;;;;;;11.30;4.65;;;26.10;99.90;;;;;;5050501;28;20504;-49
2022/08/16 07:35:58;;;;;;;10.38;4.75;;;26.10;99.90;;;;;;5075101;28;20119;-50
2022/08/16 07:38:26;;;;;;;11.13;4.88;;;26.10;99.90;;;;;;5081689;28;20031;-51
2022/08/16 07:40:53;;;;;;;12.35;4.60;;;26.00;99.90;;;;;;5073385;28;20048;-50
2022/08/16 07:43:20;;;;;;;13.80;6.07;;;26.00;99.90;;;;;;5082490;28;20377;-51
2022/08/16 07:45:46;;;;;;;13.23;5.60;;;26.00;99.90;;;;;;5070796;28;20024;-51
2022/08/16 07:48:12;;;;;;;14.15;5.20;;;26.00;99.90;;;;;;5070865;28;20036;-54
2022/08/16 07:50:39;;;;;;;11.57;4.65;;;26.00;99.90;;;;;;5075711;28;20026;-50
2022/08/16 07:53:06;;;;;;;9.38;4.38;;;26.00;99.90;;;;;;5070735;28;20029;-51
2022/08/16 07:55:32;;;;;;;12.25;5.63;;;26.00;99.90;;;;;;5074229;28;20488;-50
2022/08/16 07:57:57;;;;;;;11.90;5.68;;;26.00;99.90;;;;;;5054602;28;20090;-50
2022/08/16 08:00:23;;;;;;;17.40;5.57;;;26.10;99.90;;;;;;5067824;28;20135;-51
2022/08/16 08:02:49;;;;;;;18.05;5.90;;;26.10;99.90;;;;;;5071237;28;20063;-51
2022/08/16 08:05:15;;;;;;;16.50;5.13;;;26.20;99.90;;;;;;5086963;28;20588;-51
2022/08/16 08:07:41;;;;;;;12.38;5.80;;;26.20;99.90;;;;;;5088227;28;20381;-51
2022/08/16 08:10:08;;;;;;;8.50;5.15;;;26.30;99.90;;;;;;5087467;28;20074;-51
2022/08/16 08:12:35;;;;;;;11.68;5.07;;;26.30;99.90;;;;;;5088269;28;20451;-51
2022/08/16 08:15:01;;;;;;;12.00;5.32;;;26.30;99.90;;;;;;5088123;28;20028;-51
2022/08/16 08:17:28;;;;;;;13.57;6.80;;;26.40;99.90;;;;;;5081399;28;20071;-50
2022/08/16 08:19:54;;;;;;;14.77;5.17;;;26.40;99.90;;;;;;5065264;28;20029;-51
2022/08/16 08:22:21;;;;;;;12.13;5.10;;;26.50;99.90;;;;;;5068856;28;20753;-52
2022/08/16 08:24:47;;;;;;;15.80;4.90;;;26.50;99.90;;;;;;5064033;28;20023;-51
2022/08/16 08:27:13;;;;;;;20.45;5.00;;;26.60;99.90;;;;;;5051742;28;20074;-51
2022/08/16 08:29:40;;;;;;;11.00;4.78;;;26.60;99.90;;;;;;5064881;28;20048;-50
2022/08/16 08:32:07;;;;;;;11.27;4.43;;;26.60;99.90;;;;;;5073299;28;20028;-50
2022/08/16 08:34:33;;;;;;;;;;;26.70;99.90;;;;;;5069538;28;20020;-49
2022/08/16 08:36:59;;;;;;;10.60;4.90;;;26.80;99.90;;;;;;5069515;28;19915;-49
2022/08/16 08:39:25;;;;;;;14.73;6.63;;;26.90;99.90;;;;;;5046785;28;20556;-48
2022/08/16 08:41:51;;;;;;;15.10;5.07;;;26.90;99.90;;;;;;5067457;28;20070;-48
2022/08/16 08:44:17;;;;;;;13.73;5.13;;;26.90;99.90;;;;;;5047375;28;20028;-50
2022/08/16 08:46:43;;;;;;;9.03;5.07;;;27.00;99.90;;;;;;5070273;28;20048;-50
2022/08/16 08:49:09;;;;;;;13.68;4.60;;;27.10;99.90;;;;;;5052814;28;20402;-50
2022/08/16 08:51:37;;;;;;;11.52;5.57;;;27.20;99.90;;;;;;5068609;28;20673;-51
2022/08/16 08:54:07;;;;;;;9.80;4.70;;;27.30;99.90;;;;;;5071777;28;20045;-50
2022/08/16 08:56:36;;;;;;;12.68;4.50;;;27.30;99.90;;;;;;5070156;28;20021;-50
2022/08/16 08:59:05;;;;;;;12.77;5.07;;;27.40;99.90;;;;;;5070015;28;20134;-50
2022/08/16 09:01:35;;;;;;;10.57;4.57;;;27.40;99.90;;;;;;5067206;28;20091;-51
2022/08/16 09:04:02;;;;;;;8.23;4.10;;;27.50;99.90;;;;;;5068834;28;20032;-51
2022/08/16 09:06:31;;;;;;;6.35;3.92;;;27.50;99.90;;;;;;5087220;28;20028;-50
2022/08/16 09:08:58;;;;;;;6.05;4.28;;;27.60;99.90;;;;;;5067198;28;20063;-51
2022/08/16 09:11:25;;;;;;;9.05;5.18;;;27.60;99.90;;;;;;5051824;28;20021;-51
2022/08/16 09:13:52;;;;;;;11.15;4.88;;;27.70;99.90;;;;;;5066025;28;20036;-50
2022/08/16 09:16:18;;;;;;;14.93;5.30;;;27.80;99.90;;;;;;5068040;28;20029;-50
2022/08/16 09:18:45;;;;;;;11.00;5.55;;;27.80;99.90;;;;;;5031026;28;20146;-50
2022/08/16 09:21:13;;;;;;;9.85;4.85;;;27.80;99.90;;;;;;5067227;28;20113;-50
2022/08/16 09:23:39;;;;;;;10.70;5.00;;;27.80;99.90;;;;;;5067879;28;20021;-50
2022/08/16 09:26:09;;;;;;;11.63;5.28;;;27.90;99.90;;;;;;5073139;28;20388;-51
2022/08/16 09:28:36;;;;;;;11.45;5.53;;;27.90;99.90;;;;;;5048556;28;20426;-50
2022/08/16 09:31:05;;;;;;;13.98;4.80;;;27.90;99.90;;;;;;5070101;28;20491;-51
2022/08/16 09:33:31;;;;;;;15.15;4.60;;;28.00;99.90;;;;;;5065275;28;20040;-50
2022/08/16 09:35:57;;;;;;;12.48;5.05;;;27.90;99.90;;;;;;5072252;28;20067;-50
2022/08/16 09:38:24;;;;;;;11.75;5.70;;;28.00;99.90;;;;;;5069810;28;20034;-50
2022/08/16 09:40:50;;;;;;;13.45;5.57;;;28.00;99.90;;;;;;5086986;28;20468;-51
2022/08/16 09:43:19;;;;;;;9.48;4.85;;;27.90;99.90;;;;;;5086588;28;20103;-51
2022/08/16 09:45:46;;;;;;;13.75;5.85;;;27.90;99.90;;;;;;5087449;28;20036;-52
2022/08/16 09:48:13;;;;;;;13.13;5.30;;;27.80;99.90;;;;;;5086526;28;20035;-50
2022/08/16 09:50:40;;;;;;;;;;;27.80;99.90;;;;;;5071587;28;20385;-51
2022/08/16 09:53:11;;;;;;;9.85;6.25;;;27.80;99.90;;;;;;5065643;28;19918;-51
2022/08/16 09:55:38;;;;;;;11.60;6.50;;;27.80;99.90;;;;;;5068457;28;20056;-51
2022/08/16 09:58:04;;;;;;;13.13;7.13;;;27.70;99.90;;;;;;5067567;28;20502;-51
2022/08/16 10:00:30;;;;;;;13.40;5.60;;;27.70;99.90;;;;;;5066018;28;20053;-52
2022/08/16 10:02:57;;;;;;;15.30;5.88;;;27.70;99.90;;;;;;5065354;28;20476;-51
2022/08/16 10:05:23;;;;;;;18.58;7.55;;;27.70;99.90;;;;;;5049345;28;20032;-51
2022/08/16 10:07:52;;;;;;;13.13;6.28;;;27.80;99.90;;;;;;5069074;28;20041;-52
2022/08/16 10:10:22;;;;;;;11.65;6.13;;;27.80;99.90;;;;;;5071820;28;20028;-51
2022/08/16 10:15:34;;;;;;;19.10;10.85;;;27.80;99.90;;;;;;5073556;28;20381;-51
2022/08/16 10:18:02;;;;;;;20.00;6.60;;;27.80;99.90;;;;;;5069728;28;20097;-51
2022/08/16 10:20:30;;;;;;;12.85;5.65;;;27.80;99.90;;;;;;5072990;28;20032;-51
2022/08/16 10:22:56;;;;;;;10.70;5.00;;;27.90;99.90;;;;;;5072392;28;20033;-51
2022/08/16 10:25:22;;;;;;;11.90;5.60;;;28.00;99.90;;;;;;5054958;28;20478;-51
2022/08/16 10:27:48;;;;;;;12.18;5.93;;;28.00;99.90;;;;;;5072849;28;20441;-51
2022/08/16 10:30:15;;;;;;;18.55;6.38;;;28.00;99.90;;;;;;5069892;28;20024;-51
2022/08/16 10:32:40;;;;;;;12.25;6.63;;;28.00;99.90;;;;;;5073259;28;20029;-51
2022/08/16 10:35:07;;;;;;;13.25;5.97;;;28.00;99.90;;;;;;5072905;28;20058;-51
2022/08/16 10:37:33;;;;;;;11.55;4.60;;;28.10;99.90;;;;;;5072788;28;20075;-51
2022/08/16 10:40:00;;;;;;;13.07;6.25;;;28.10;99.90;;;;;;5072673;28;20117;-51
2022/08/16 10:42:27;;;;;;;10.57;5.45;;;28.10;99.90;;;;;;5090107;28;20468;-51
2022/08/16 10:44:53;;;;;;;17.63;8.32;;;28.10;99.90;;;;;;5089116;28;20446;-50
2022/08/16 10:47:18;;;;;;;19.95;9.40;;;28.20;99.90;;;;;;5089728;28;20032;-50
2022/08/16 10:49:45;;;;;;;15.25;7.68;;;28.20;99.90;;;;;;5089577;28;20028;-50
2022/08/16 10:52:12;;;;;;;18.45;6.15;;;28.30;99.90;;;;;;5090241;28;20036;-50
2022/08/16 10:54:38;;;;;;;12.27;6.25;;;28.30;99.90;;;;;;5089242;28;20028;-51
2022/08/16 10:57:04;;;;;;;12.80;6.07;;;28.30;99.90;;;;;;5069530;28;20407;-51
2022/08/16 10:59:32;;;;;;;12.60;5.28;;;28.40;99.90;;;;;;5072477;28;20025;-51
2022/08/16 11:01:58;;;;;;;10.68;5.20;;;28.40;99.90;;;;;;5072039;28;20063;-51
2022/08/16 11:04:25;;;;;;;11.63;5.60;;;28.50;99.90;;;;;;5071405;28;20032;-51
2022/08/16 11:06:52;;;;;;;11.88;5.15;;;28.60;99.90;;;;;;5072070;28;20522;-51
2022/08/16 11:09:18;;;;;;;12.85;4.78;;;28.70;99.90;;;;;;5072362;28;20104;-51
2022/08/16 11:11:43;;;;;;;7.97;4.22;;;28.90;99.90;;;;;;5072525;28;20469;-51
2022/08/16 11:14:09;;;;;;;14.00;4.45;;;29.10;99.90;;;;;;5053935;28;20038;-51
2022/08/16 11:16:35;;;;;;;7.22;4.35;;;29.20;99.90;;;;;;5072331;28;20032;-51
2022/08/16 11:19:02;;;;;;;12.25;4.55;;;29.30;99.90;;;;;;5071832;28;20447;-51
2022/08/16 11:21:28;;;;;;;15.20;8.55;;;29.50;99.90;;;;;;5072039;28;20020;-51
2022/08/16 11:23:55;;;;;;;11.82;5.47;;;29.60;99.90;;;;;;5088901;28;20046;-51
2022/08/16 11:26:21;;;;;;;12.23;5.20;;;29.70;99.90;;;;;;5088599;28;20024;-49
2022/08/16 11:28:49;;;;;;;9.88;4.03;;;29.90;99.90;;;;;;5089096;28;20038;-49
2022/08/16 11:31:16;;;;;;;12.60;4.78;;;30.00;99.90;;;;;;5088914;28;20056;-49
2022/08/16 11:33:42;;;;;;;14.10;5.47;;;30.10;99.90;;;;;;5089222;28;20032;-50
2022/08/16 11:36:09;;;;;;;10.75;4.45;;;30.20;99.90;;;;;;5073010;28;20393;-50
2022/08/16 11:38:35;;;;;;;7.03;4.18;;;30.30;99.90;;;;;;5050341;28;20017;-52
2022/08/16 11:41:01;;;;;;;14.80;4.57;;;30.30;99.90;;;;;;5071403;28;20016;-50
2022/08/16 11:43:31;;;;;;;9.10;3.93;;;30.40;99.90;;;;;;5071027;28;20039;-50
2022/08/16 11:45:59;;;;;;;9.63;4.68;;;30.50;99.90;;;;;;5070901;28;20100;-50
2022/08/16 11:48:28;;;;;;;8.88;4.10;;;30.60;99.90;;;;;;5068853;28;20492;-50
2022/08/16 11:50:55;;;;;;;10.75;4.30;;;30.60;99.90;;;;;;5052891;28;20048;-49
2022/08/16 11:53:22;;;;;;;8.98;4.72;;;30.60;99.90;;;;;;5070959;28;20028;-50
2022/08/16 11:55:49;;;;;;;10.35;4.35;;;30.70;99.90;;;;;;5080291;28;20030;-49
2022/08/16 11:58:15;;;;;;;10.32;4.20;;;30.60;99.90;;;;;;5083047;28;20537;-50
2022/08/16 12:00:43;;;;;;;7.60;3.70;;;30.70;99.90;;;;;;5070963;28;20041;-49
2022/08/16 12:03:09;;;;;;;8.98;4.28;;;30.70;99.90;;;;;;5070856;28;20024;-50
2022/08/16 12:05:36;;;;;;;6.88;3.85;;;30.70;99.90;;;;;;5072007;28;20016;-50
2022/08/16 12:08:06;;;;;;;18.52;4.20;;;30.70;99.90;;;;;;5073309;28;20028;-52
2022/08/16 12:10:33;;;;;;;7.40;3.90;;;30.70;99.90;;;;;;5070364;28;20425;-52
2022/08/16 12:12:59;;;;;;;11.25;6.00;;;30.70;99.90;;;;;;5070500;28;20052;-51
2022/08/16 12:15:25;;;;;;;10.30;4.75;;;30.80;99.90;;;;;;5060495;28;20057;-52
2022/08/16 12:17:54;;;;;;;10.35;4.65;;;30.90;99.90;;;;;;5064928;28;20012;-51
2022/08/16 12:20:24;;;;;;;13.48;5.38;;;30.90;99.90;;;;;;5067770;28;20028;-51
2022/08/16 12:22:52;;;;;;;14.30;5.63;;;31.00;99.90;;;;;;5052789;28;20560;-51
2022/08/16 12:25:20;;;;;;;11.00;5.25;;;31.00;99.90;;;;;;5070312;28;20025;-51
2022/08/16 12:27:47;;;;;;;14.15;5.90;;;30.90;99.90;;;;;;5063941;28;20063;-51
2022/08/16 12:30:18;;;;;;;17.73;6.07;;;30.90;99.90;;;;;;5076724;28;20127;-51
2022/08/16 12:32:43;;;;;;;17.55;6.57;;;30.90;99.90;;;;;;5056234;28;20529;-51
2022/08/16 12:35:15;;;;;;;14.68;5.32;;;30.80;99.90;;;;;;5051763;28;20048;-52
2022/08/16 12:37:44;;;;;;;14.77;6.22;;;30.80;99.90;;;;;;5067965;28;20082;-52
2022/08/16 12:40:13;;;;;;;10.25;4.88;;;30.80;99.90;;;;;;5068575;28;20478;-51
2022/08/16 12:42:40;;;;;;;16.77;6.70;;;30.70;99.90;;;;;;5067378;28;20048;-51